Time;durP1;ratioP1;P1;durP2;ratioP2;P2;SDS_P1;SDS_P2;PMS_P1;PMS_P2;Temp;Humidity;BMP_temperature;BMP_pressure;BME280_temperature;BME280_humidity;BME280_pressure;Samples;Min_cycle;Max_cycle;Signal;HPM_P1;HPM_P2
2023/02/11 00:01:52;;;;;;;16.92;7.50;;;18.00;99.90;;;;;;5054090;28;20096;-54
2023/02/11 00:04:18;;;;;;;18.40;7.90;;;18.00;99.90;;;;;;5053491;28;20549;-55
2023/02/11 00:06:43;;;;;;;12.95;7.05;;;18.00;99.90;;;;;;5052535;28;20040;-55
2023/02/11 00:09:09;;;;;;;17.27;7.85;;;18.00;99.90;;;;;;5019479;28;20352;-54
2023/02/11 00:11:35;;;;;;;12.32;7.35;;;18.00;99.90;;;;;;5053921;28;20052;-54
2023/02/11 00:14:03;;;;;;;16.15;8.05;;;17.90;99.90;;;;;;5036041;28;20096;-55
2023/02/11 00:16:31;;;;;;;17.92;7.88;;;17.90;99.90;;;;;;5035362;28;20483;-54
2023/02/11 00:18:59;;;;;;;14.60;7.10;;;17.90;99.90;;;;;;5053027;28;20061;-55
2023/02/11 00:21:26;;;;;;;13.07;8.20;;;17.90;99.90;;;;;;5052542;28;20033;-54
2023/02/11 00:23:53;;;;;;;14.30;7.33;;;17.90;99.90;;;;;;5018921;28;20049;-54
2023/02/11 00:26:25;;;;;;;16.15;7.75;;;17.90;99.90;;;;;;5052939;28;20025;-54
2023/02/11 00:28:52;;;;;;;14.23;7.00;;;17.90;99.90;;;;;;5049279;28;20025;-54
2023/02/11 00:31:20;;;;;;;13.07;7.30;;;17.90;99.90;;;;;;5053098;28;20390;-54
2023/02/11 00:33:46;;;;;;;12.27;7.30;;;17.90;99.90;;;;;;5052435;28;20596;-54
2023/02/11 00:36:18;;;;;;;16.75;7.80;;;17.90;99.90;;;;;;5050055;28;20069;-55
2023/02/11 00:38:45;;;;;;;13.73;7.45;;;17.90;99.90;;;;;;5050948;28;20017;-55
2023/02/11 00:41:13;;;;;;;13.35;7.00;;;17.90;99.90;;;;;;5051428;28;20030;-54
2023/02/11 00:43:39;;;;;;;17.00;7.90;;;17.90;99.90;;;;;;5022698;28;20037;-54
2023/02/11 00:46:05;;;;;;;15.77;7.38;;;17.90;99.90;;;;;;5024245;28;20153;-53
2023/02/11 00:48:31;;;;;;;14.85;8.10;;;17.90;99.90;;;;;;5022705;28;20020;-54
2023/02/11 00:50:57;;;;;;;16.50;8.13;;;17.90;99.90;;;;;;5033256;28;20017;-53
2023/02/11 00:53:23;;;;;;;16.63;7.82;;;17.80;99.90;;;;;;5033901;28;20037;-54
2023/02/11 00:55:49;;;;;;;15.63;7.70;;;17.80;99.90;;;;;;5033552;28;20388;-55
2023/02/11 00:58:14;;;;;;;21.67;9.13;;;17.80;99.90;;;;;;5033572;28;20101;-54
2023/02/11 01:00:40;;;;;;;18.42;7.65;;;17.80;99.90;;;;;;5061634;23;20140;-60
2023/02/11 01:03:06;;;;;;;17.95;8.40;;;17.80;99.90;;;;;;5053763;28;20021;-58
2023/02/11 01:05:32;;;;;;;13.50;7.07;;;17.80;99.90;;;;;;5035572;28;20031;-59
2023/02/11 01:07:58;;;;;;;14.82;7.10;;;17.80;99.90;;;;;;5053362;28;20025;-58
2023/02/11 01:10:24;;;;;;;15.35;7.43;;;17.80;99.90;;;;;;5053629;28;20439;-59
2023/02/11 01:12:50;;;;;;;15.38;8.02;;;17.80;99.90;;;;;;5053435;28;20036;-58
2023/02/11 01:15:17;;;;;;;15.73;8.57;;;17.80;99.90;;;;;;5053308;28;20023;-58
2023/02/11 01:17:43;;;;;;;;;;;17.80;99.90;;;;;;5053591;28;20383;-58
2023/02/11 01:20:15;;;;;;;16.98;8.18;;;17.80;99.90;;;;;;5035119;28;19912;-58
2023/02/11 01:22:40;;;;;;;14.18;7.85;;;17.80;99.90;;;;;;5053146;28;20059;-59
2023/02/11 01:25:07;;;;;;;16.40;8.20;;;17.80;99.90;;;;;;5053189;28;20108;-58
2023/02/11 01:27:33;;;;;;;15.00;8.02;;;17.80;99.90;;;;;;5053171;28;20096;-59
2023/02/11 01:29:59;;;;;;;18.20;8.48;;;17.70;99.90;;;;;;5053022;28;20486;-59
2023/02/11 01:32:25;;;;;;;15.55;7.50;;;17.70;99.90;;;;;;5053377;28;20033;-58
2023/02/11 01:34:50;;;;;;;12.25;7.63;;;17.70;99.90;;;;;;5053249;28;20471;-58
2023/02/11 01:37:16;;;;;;;14.65;7.60;;;17.70;99.90;;;;;;5052938;28;20386;-60
2023/02/11 01:39:42;;;;;;;20.02;7.60;;;17.70;99.90;;;;;;5052894;28;20437;-59
2023/02/11 01:42:15;;;;;;;13.63;7.57;;;17.70;99.90;;;;;;5052512;28;20029;-58
2023/02/11 01:44:41;;;;;;;17.70;8.68;;;17.70;99.90;;;;;;5034967;28;20032;-60
2023/02/11 01:47:07;;;;;;;15.27;9.75;;;17.70;99.90;;;;;;5052860;28;20064;-59
2023/02/11 01:49:40;;;;;;;16.58;8.30;;;17.70;99.90;;;;;;5052811;28;20104;-58
2023/02/11 01:52:14;;;;;;;16.98;8.23;;;17.70;99.90;;;;;;5035750;28;20040;-58
2023/02/11 01:57:35;;;;;;;16.35;8.70;;;17.70;99.90;;;;;;5052788;28;20102;-58
2023/02/11 02:00:10;;;;;;;15.82;8.30;;;17.70;99.90;;;;;;5052819;28;20045;-59
2023/02/11 02:02:51;;;;;;;16.13;8.05;;;17.70;99.90;;;;;;5052410;28;20108;-58
2023/02/11 02:05:44;;;;;;;17.40;8.60;;;17.70;99.90;;;;;;5052420;28;20029;-59
2023/02/11 02:08:22;;;;;;;14.80;7.55;;;17.70;99.90;;;;;;5052405;28;20055;-59
2023/02/11 02:10:52;;;;;;;;;;;17.70;99.90;;;;;;5052840;28;20021;-58
2023/02/11 02:13:19;;;;;;;18.15;8.02;;;17.70;99.90;;;;;;5052305;28;19924;-59
2023/02/11 02:15:52;;;;;;;16.75;8.32;;;17.70;99.90;;;;;;5052228;28;20032;-58
2023/02/11 02:18:42;;;;;;;11.80;6.93;;;17.70;99.90;;;;;;5034355;28;20522;-59
2023/02/11 02:21:36;;;;;;;13.23;7.50;;;17.60;99.90;;;;;;5052383;28;20497;-58
2023/02/11 02:24:38;;;;;;;14.60;7.75;;;17.60;99.90;;;;;;5052071;28;20029;-59
2023/02/11 02:27:24;;;;;;;16.98;8.98;;;17.60;99.90;;;;;;5034157;28;20078;-59
2023/02/11 02:30:21;;;;;;;18.75;8.23;;;17.60;99.90;;;;;;5052115;28;20048;-59
2023/02/11 02:33:02;;;;;;;17.30;8.63;;;17.60;99.90;;;;;;5052319;28;20454;-58
2023/02/11 02:35:41;;;;;;;16.60;9.05;;;17.60;99.90;;;;;;5051980;28;20415;-58
2023/02/11 02:38:09;;;;;;;18.77;9.85;;;17.60;99.90;;;;;;5063753;28;20103;-59
2023/02/11 02:40:50;;;;;;;15.45;8.77;;;17.60;99.90;;;;;;5067789;28;20028;-58
2023/02/11 02:43:16;;;;;;;17.38;8.63;;;17.60;99.90;;;;;;5067303;28;20047;-58
2023/02/11 02:45:42;;;;;;;17.80;8.15;;;17.60;99.90;;;;;;5051591;28;20029;-59
2023/02/11 02:48:27;;;;;;;16.10;8.52;;;17.60;99.90;;;;;;5051354;28;20021;-58
2023/02/11 02:51:18;;;;;;;14.77;7.63;;;17.50;99.90;;;;;;5063372;28;20474;-59
2023/02/11 02:53:47;;;;;;;19.73;9.63;;;17.60;99.90;;;;;;5062614;28;20040;-58
2023/02/11 02:56:47;;;;;;;18.48;8.10;;;17.60;99.90;;;;;;5055477;28;20021;-59
2023/02/11 03:01:56;;;;;;;13.07;7.60;;;17.50;99.90;;;;;;5048331;28;20052;-54
2023/02/11 03:04:50;;;;;;;19.90;9.15;;;17.50;99.90;;;;;;5035649;28;20034;-54
2023/02/11 03:07:57;;;;;;;13.60;8.30;;;17.50;99.90;;;;;;5012015;28;20044;-53
2023/02/11 03:10:33;;;;;;;14.38;8.27;;;17.50;99.90;;;;;;5032967;28;20029;-53
2023/02/11 03:13:00;;;;;;;14.63;8.60;;;17.50;99.90;;;;;;5042427;28;20072;-54
2023/02/11 03:15:31;;;;;;;15.40;8.13;;;17.50;99.90;;;;;;5035280;28;20023;-53
2023/02/11 03:18:00;;;;;;;14.63;8.30;;;17.50;99.90;;;;;;5048750;28;20032;-54
2023/02/11 03:20:29;;;;;;;14.38;8.10;;;17.50;99.90;;;;;;5035414;28;20014;-54
2023/02/11 03:23:03;;;;;;;16.10;7.70;;;17.50;99.90;;;;;;5048198;28;20064;-54
2023/02/11 03:25:35;;;;;;;13.45;7.30;;;17.50;99.90;;;;;;5023005;28;20022;-54
2023/02/11 03:28:04;;;;;;;15.88;7.70;;;17.50;99.90;;;;;;5035237;28;20026;-54
2023/02/11 03:30:37;;;;;;;20.95;9.10;;;17.50;99.90;;;;;;5029724;28;20043;-53
2023/02/11 03:33:16;;;;;;;16.05;8.23;;;17.50;99.90;;;;;;5039949;28;20116;-54
2023/02/11 03:35:53;;;;;;;17.50;7.07;;;17.50;99.90;;;;;;5018144;28;20092;-54
2023/02/11 03:38:26;;;;;;;19.17;8.18;;;17.50;99.90;;;;;;5051064;28;20025;-54
2023/02/11 03:40:55;;;;;;;17.20;7.82;;;17.50;99.90;;;;;;5054704;28;20394;-54
2023/02/11 03:43:40;;;;;;;16.83;8.80;;;17.50;99.90;;;;;;5047368;28;20026;-54
2023/02/11 03:46:08;;;;;;;15.55;9.05;;;17.50;99.90;;;;;;5051751;28;20018;-54
2023/02/11 03:48:40;;;;;;;14.13;8.05;;;17.50;99.90;;;;;;5036807;28;20053;-53
2023/02/11 03:51:09;;;;;;;13.35;7.13;;;17.50;99.90;;;;;;5040992;28;20017;-54
2023/02/11 03:53:37;;;;;;;14.00;7.90;;;17.50;99.90;;;;;;5020228;28;20483;-54
2023/02/11 03:56:05;;;;;;;;;;;17.50;99.90;;;;;;5039641;28;20053;-53
2023/02/11 03:58:31;;;;;;;15.65;7.32;;;17.50;99.90;;;;;;5017202;28;20053;-54
2023/02/11 04:00:57;;;;;;;15.18;7.55;;;17.50;99.90;;;;;;5035043;28;20084;-53
2023/02/11 04:03:22;;;;;;;14.63;7.47;;;17.50;99.90;;;;;;5034588;28;20447;-53
2023/02/11 04:05:48;;;;;;;17.67;8.07;;;17.40;99.90;;;;;;5034411;28;20028;-53
2023/02/11 04:08:14;;;;;;;16.98;8.48;;;17.50;99.90;;;;;;5048697;28;20033;-53
2023/02/11 04:10:40;;;;;;;14.25;7.35;;;17.40;99.90;;;;;;5034296;28;20026;-52
2023/02/11 04:13:05;;;;;;;15.50;7.93;;;17.40;99.90;;;;;;5033983;28;20506;-53
2023/02/11 04:15:31;;;;;;;16.92;7.75;;;17.50;99.90;;;;;;5034666;28;20559;-53
2023/02/11 04:17:57;;;;;;;17.30;8.05;;;17.40;99.90;;;;;;5047427;28;20021;-54
2023/02/11 04:20:23;;;;;;;12.82;7.10;;;17.40;99.90;;;;;;5034072;28;20030;-54
2023/02/11 04:22:49;;;;;;;13.63;6.80;;;17.40;99.90;;;;;;5036728;28;20472;-54
2023/02/11 04:25:15;;;;;;;13.73;7.07;;;17.40;99.90;;;;;;5053994;28;20029;-52
2023/02/11 04:27:40;;;;;;;14.45;7.40;;;17.40;99.90;;;;;;5037776;28;20075;-54
2023/02/11 04:30:07;;;;;;;12.77;6.60;;;17.40;99.90;;;;;;5033846;28;20436;-54
2023/02/11 04:32:33;;;;;;;26.90;7.65;;;17.40;99.90;;;;;;5033873;28;20337;-53
2023/02/11 04:34:59;;;;;;;14.73;7.57;;;17.40;99.90;;;;;;5040036;28;20486;-53
2023/02/11 04:37:24;;;;;;;13.02;6.93;;;17.40;99.90;;;;;;5053801;28;20083;-53
2023/02/11 04:39:50;;;;;;;10.88;5.88;;;17.40;99.90;;;;;;5048826;28;20017;-53
2023/02/11 04:42:16;;;;;;;13.50;6.80;;;17.40;99.90;;;;;;5028863;28;20434;-54
2023/02/11 04:44:42;;;;;;;13.82;6.47;;;17.40;99.90;;;;;;5047098;28;20442;-54
2023/02/11 04:47:08;;;;;;;11.57;6.70;;;17.40;99.90;;;;;;5046746;28;20029;-55
2023/02/11 04:49:33;;;;;;;11.70;6.55;;;17.40;99.90;;;;;;5048008;28;20065;-54
2023/02/11 04:51:59;;;;;;;12.23;7.18;;;17.40;99.90;;;;;;5045909;28;20033;-54
2023/02/11 04:54:25;;;;;;;13.75;7.30;;;17.40;99.90;;;;;;5034144;28;20033;-54
2023/02/11 04:56:50;;;;;;;13.40;8.00;;;17.40;99.90;;;;;;5026139;28;20040;-55
2023/02/11 04:59:16;;;;;;;12.98;6.55;;;17.40;99.90;;;;;;5036099;28;20096;-54
2023/02/11 05:01:42;;;;;;;13.13;6.95;;;17.40;99.90;;;;;;5033885;28;20479;-54
2023/02/11 05:04:08;;;;;;;13.55;6.07;;;17.40;99.90;;;;;;5033183;28;20032;-54
2023/02/11 05:06:34;;;;;;;15.60;7.30;;;17.40;99.90;;;;;;5042516;28;20024;-54
2023/02/11 05:08:59;;;;;;;14.25;7.18;;;17.40;99.90;;;;;;5039866;28;20549;-54
2023/02/11 05:11:25;;;;;;;11.30;6.28;;;17.40;99.90;;;;;;5053106;28;20528;-53
2023/02/11 05:13:52;;;;;;;15.20;6.25;;;17.40;99.90;;;;;;5038885;28;20017;-54
2023/02/11 05:16:18;;;;;;;14.48;7.28;;;17.40;99.90;;;;;;5039185;28;20025;-54
2023/02/11 05:18:44;;;;;;;15.65;7.30;;;17.40;99.90;;;;;;5051910;28;20386;-54
2023/02/11 05:21:17;;;;;;;10.52;6.07;;;17.40;99.90;;;;;;5048458;28;20399;-53
2023/02/11 05:23:43;;;;;;;14.40;7.10;;;17.40;99.90;;;;;;5033057;28;20032;-54
2023/02/11 05:26:09;;;;;;;10.32;6.38;;;17.40;99.90;;;;;;5046238;28;20109;-55
2023/02/11 05:28:37;;;;;;;13.18;6.97;;;17.40;99.90;;;;;;5033050;28;20479;-54
2023/02/11 05:31:03;;;;;;;;;;;17.40;99.90;;;;;;5015288;28;20475;-53
2023/02/11 05:33:29;;;;;;;13.85;5.63;;;17.40;99.90;;;;;;5043836;28;19915;-54
2023/02/11 05:35:59;;;;;;;14.50;6.65;;;17.40;99.90;;;;;;5034888;28;20017;-53
2023/02/11 05:38:25;;;;;;;15.20;6.97;;;17.40;99.90;;;;;;5044484;28;20021;-53
2023/02/11 05:40:51;;;;;;;11.43;6.90;;;17.40;99.90;;;;;;5047046;28;20025;-54
2023/02/11 05:43:16;;;;;;;14.15;6.90;;;17.40;99.90;;;;;;5045665;28;20451;-53
2023/02/11 05:45:42;;;;;;;11.85;6.18;;;17.40;99.90;;;;;;5032437;28;20037;-54
2023/02/11 05:48:08;;;;;;;14.63;7.05;;;17.40;99.90;;;;;;5032677;28;20025;-53
2023/02/11 05:50:34;;;;;;;10.38;6.45;;;17.40;99.90;;;;;;5032490;28;20028;-53
2023/02/11 05:52:59;;;;;;;14.98;6.28;;;17.40;99.90;;;;;;5045183;28;20041;-54
2023/02/11 05:55:25;;;;;;;11.85;6.15;;;17.40;99.90;;;;;;5043150;28;20028;-53
2023/02/11 05:57:51;;;;;;;15.20;6.75;;;17.40;99.90;;;;;;5038568;28;20047;-53
2023/02/11 06:00:17;;;;;;;13.77;6.40;;;17.40;99.90;;;;;;5041329;28;20060;-54
2023/02/11 06:02:43;;;;;;;12.38;6.35;;;17.40;99.90;;;;;;5045554;28;20067;-54
2023/02/11 06:05:09;;;;;;;13.00;6.78;;;17.40;99.90;;;;;;5041570;28;20407;-54
2023/02/11 06:07:34;;;;;;;10.98;5.82;;;17.40;99.90;;;;;;5037168;28;20021;-53
2023/02/11 06:10:00;;;;;;;14.70;6.38;;;17.40;99.90;;;;;;5044320;28;20025;-53
2023/02/11 06:12:26;;;;;;;11.77;6.22;;;17.40;99.90;;;;;;5032062;28;20073;-54
2023/02/11 06:14:52;;;;;;;10.07;5.65;;;17.40;99.90;;;;;;5038118;28;20028;-54
2023/02/11 06:17:18;;;;;;;9.93;5.38;;;17.40;99.90;;;;;;5034101;28;20021;-54
2023/02/11 06:19:44;;;;;;;11.88;5.88;;;17.40;99.90;;;;;;5047332;28;20025;-54
2023/02/11 06:22:09;;;;;;;13.52;5.97;;;17.40;99.90;;;;;;5043358;28;20021;-54
2023/02/11 06:24:36;;;;;;;12.80;6.45;;;17.40;99.90;;;;;;5048845;28;20024;-54
2023/02/11 06:27:03;;;;;;;11.90;5.75;;;17.40;99.90;;;;;;5042144;28;20021;-53
2023/02/11 06:29:29;;;;;;;14.98;6.55;;;17.40;99.90;;;;;;5047730;28;20064;-54
2023/02/11 06:31:55;;;;;;;11.93;6.13;;;17.40;99.90;;;;;;5040481;28;20033;-53
2023/02/11 06:34:21;;;;;;;12.60;6.47;;;17.40;99.90;;;;;;5020509;28;20448;-53
2023/02/11 06:36:47;;;;;;;15.02;6.57;;;17.40;99.90;;;;;;5025688;28;20013;-53
2023/02/11 06:39:13;;;;;;;14.63;6.72;;;17.40;99.90;;;;;;5032110;28;20386;-53
2023/02/11 06:41:39;;;;;;;11.48;6.53;;;17.40;99.90;;;;;;5051838;28;20051;-54
2023/02/11 06:44:05;;;;;;;12.77;5.97;;;17.40;99.90;;;;;;5051797;28;20031;-53
2023/02/11 06:46:32;;;;;;;11.82;6.03;;;17.40;99.90;;;;;;5051595;28;20021;-54
2023/02/11 06:48:57;;;;;;;13.23;7.05;;;17.40;99.90;;;;;;5051669;28;20463;-53
2023/02/11 06:51:23;;;;;;;10.10;5.85;;;17.40;99.90;;;;;;5047381;28;20065;-53
2023/02/11 06:53:49;;;;;;;15.57;6.70;;;17.40;99.90;;;;;;5031565;28;20026;-53
2023/02/11 06:56:18;;;;;;;13.73;6.82;;;17.40;99.90;;;;;;5035134;28;20500;-53
2023/02/11 06:58:46;;;;;;;11.88;6.53;;;17.40;99.90;;;;;;5051551;28;20056;-53
2023/02/11 07:01:14;;;;;;;12.73;6.20;;;17.40;99.90;;;;;;5048008;28;20483;-53
2023/02/11 07:03:42;;;;;;;10.43;5.75;;;17.40;99.90;;;;;;5031944;28;20030;-54
2023/02/11 07:06:11;;;;;;;;;;;17.40;99.90;;;;;;5032092;28;20032;-53
2023/02/11 07:08:37;;;;;;;12.90;6.20;;;17.40;99.90;;;;;;5023093;28;19911;-53
2023/02/11 07:11:29;;;;;;;11.23;5.50;;;17.40;99.90;;;;;;5035166;28;20501;-53
2023/02/11 07:13:59;;;;;;;10.55;5.78;;;17.40;99.90;;;;;;5028639;28;20041;-53
2023/02/11 07:16:25;;;;;;;10.77;5.40;;;17.40;99.90;;;;;;5049945;28;20032;-52
2023/02/11 07:18:51;;;;;;;12.65;5.78;;;17.40;99.90;;;;;;5041008;28;20021;-54
2023/02/11 07:21:19;;;;;;;9.43;5.10;;;17.40;99.90;;;;;;5031150;28;20391;-54
2023/02/11 07:23:47;;;;;;;12.15;5.75;;;17.40;99.90;;;;;;5042355;28;20029;-53
2023/02/11 07:26:16;;;;;;;9.65;5.18;;;17.30;99.90;;;;;;5016843;28;20026;-53
2023/02/11 07:28:43;;;;;;;13.30;5.85;;;17.30;99.90;;;;;;5031638;28;20030;-53
2023/02/11 07:31:18;;;;;;;11.45;5.47;;;17.30;99.90;;;;;;5031229;28;20479;-53
2023/02/11 07:33:44;;;;;;;12.50;5.90;;;17.30;99.90;;;;;;5031244;28;20139;-53
2023/02/11 07:36:11;;;;;;;11.02;6.03;;;17.40;99.90;;;;;;5048596;28;20514;-54
2023/02/11 07:38:38;;;;;;;9.07;5.18;;;17.40;99.90;;;;;;5042361;28;20132;-53
2023/02/11 07:41:06;;;;;;;10.50;5.13;;;17.30;99.90;;;;;;5034112;28;20040;-53
2023/02/11 07:43:32;;;;;;;10.98;5.97;;;17.30;99.90;;;;;;5046178;28;20407;-53
2023/02/11 07:46:01;;;;;;;12.77;5.72;;;17.30;99.90;;;;;;5034749;28;20112;-54
2023/02/11 07:48:27;;;;;;;11.98;6.43;;;17.30;99.90;;;;;;5042941;28;20052;-53
2023/02/11 07:50:53;;;;;;;10.27;6.43;;;17.30;99.90;;;;;;5021777;28;20064;-54
2023/02/11 07:53:18;;;;;;;13.82;5.90;;;17.30;99.90;;;;;;5034532;28;20116;-54
2023/02/11 07:55:44;;;;;;;9.95;5.47;;;17.30;99.90;;;;;;5034559;28;20101;-53
2023/02/11 07:58:10;;;;;;;10.25;5.35;;;17.30;99.90;;;;;;5053633;28;20024;-53
2023/02/11 08:00:36;;;;;;;9.45;5.40;;;17.30;99.90;;;;;;5053834;28;20041;-53
2023/02/11 08:03:02;;;;;;;11.45;5.00;;;17.30;99.90;;;;;;5053855;28;20028;-54
2023/02/11 08:05:29;;;;;;;15.90;5.97;;;17.30;99.90;;;;;;5044164;28;20068;-54
2023/02/11 08:07:55;;;;;;;8.30;4.93;;;17.30;99.90;;;;;;5031337;28;20057;-54
2023/02/11 08:10:21;;;;;;;10.48;5.65;;;17.30;99.90;;;;;;5054356;28;20051;-55
2023/02/11 08:12:47;;;;;;;14.18;5.40;;;17.30;99.90;;;;;;5024389;28;20123;-53
2023/02/11 08:15:13;;;;;;;7.80;3.95;;;17.30;99.90;;;;;;5052029;28;20458;-57
2023/02/11 08:17:39;;;;;;;14.13;5.88;;;17.30;99.90;;;;;;5053148;28;20074;-53
2023/02/11 08:20:05;;;;;;;7.68;4.95;;;17.30;99.90;;;;;;5053142;28;20029;-54
2023/02/11 08:22:32;;;;;;;12.15;5.65;;;17.30;99.90;;;;;;5052632;28;20033;-53
2023/02/11 08:24:58;;;;;;;9.65;5.60;;;17.30;99.90;;;;;;5053277;28;20100;-53
2023/02/11 08:27:25;;;;;;;8.68;4.75;;;17.30;99.90;;;;;;5053509;28;20104;-54
2023/02/11 08:29:52;;;;;;;9.57;4.47;;;17.30;99.90;;;;;;5052474;28;20017;-54
2023/02/11 08:32:17;;;;;;;8.85;4.70;;;17.30;99.90;;;;;;5036131;28;20032;-53
2023/02/11 08:34:43;;;;;;;10.38;4.50;;;17.40;99.90;;;;;;5033460;28;20026;-53
2023/02/11 08:37:09;;;;;;;11.35;4.82;;;17.30;99.90;;;;;;5033415;28;20549;-50
2023/02/11 08:39:35;;;;;;;8.68;4.63;;;17.30;99.90;;;;;;5045944;28;20021;-52
2023/02/11 08:42:01;;;;;;;9.93;5.43;;;17.40;99.90;;;;;;5048559;28;20451;-52
2023/02/11 08:44:26;;;;;;;9.25;5.78;;;17.40;99.90;;;;;;5050892;28;20020;-53
2023/02/11 08:46:52;;;;;;;10.50;5.30;;;17.40;99.90;;;;;;5052737;28;20025;-52
2023/02/11 08:49:19;;;;;;;7.70;4.13;;;17.40;99.90;;;;;;5053035;28;20063;-52
2023/02/11 08:51:45;;;;;;;10.52;5.10;;;17.40;99.90;;;;;;5047444;28;20018;-52
2023/02/11 08:54:12;;;;;;;11.75;4.63;;;17.40;99.90;;;;;;5052653;28;20021;-52
2023/02/11 08:56:38;;;;;;;14.73;5.32;;;17.40;99.90;;;;;;5026206;28;20025;-49
2023/02/11 08:59:05;;;;;;;9.98;5.05;;;17.40;99.90;;;;;;5028740;28;20397;-50
2023/02/11 09:01:31;;;;;;;7.80;4.15;;;17.40;99.90;;;;;;5046234;28;20087;-51
2023/02/11 09:03:58;;;;;;;9.68;4.45;;;17.40;99.90;;;;;;5039351;28;20036;-54
2023/02/11 09:06:25;;;;;;;8.80;4.10;;;17.40;99.90;;;;;;5052653;28;20035;-51
2023/02/11 09:08:54;;;;;;;11.40;5.05;;;17.40;99.90;;;;;;5053042;28;20293;-51
2023/02/11 09:11:23;;;;;;;8.35;5.43;;;17.40;99.90;;;;;;5046426;28;20061;-53
2023/02/11 09:13:49;;;;;;;9.45;4.57;;;17.40;99.90;;;;;;5028458;28;20029;-55
2023/02/11 09:16:18;;;;;;;10.68;4.88;;;17.40;99.90;;;;;;5033217;28;20132;-56
2023/02/11 09:18:44;;;;;;;11.02;6.05;;;17.50;99.90;;;;;;5033923;28;20037;-58
2023/02/11 09:21:10;;;;;;;10.88;5.18;;;17.50;99.90;;;;;;5045284;28;20551;-55
2023/02/11 09:23:36;;;;;;;8.05;4.32;;;17.50;99.90;;;;;;5045969;28;20029;-52
2023/02/11 09:26:16;;;;;;;10.35;4.82;;;17.50;99.90;;;;;;5032741;28;20379;-51
2023/02/11 09:28:43;;;;;;;8.57;4.40;;;17.50;99.90;;;;;;5018398;28;20356;-53
2023/02/11 09:31:11;;;;;;;11.38;5.13;;;17.50;99.90;;;;;;5020323;28;20034;-53
2023/02/11 09:33:38;;;;;;;13.32;4.45;;;17.50;99.90;;;;;;5039569;28;20033;-54
2023/02/11 09:36:05;;;;;;;12.55;4.65;;;17.50;99.90;;;;;;5047967;28;20049;-54
2023/02/11 09:38:31;;;;;;;8.93;4.85;;;17.50;99.90;;;;;;5052383;28;20029;-53
2023/02/11 09:40:57;;;;;;;9.88;5.25;;;17.50;99.90;;;;;;5049672;28;20029;-53
2023/02/11 09:43:45;;;;;;;10.52;4.72;;;17.50;99.90;;;;;;5032399;28;20555;-53
2023/02/11 09:46:14;;;;;;;10.05;5.32;;;17.50;99.90;;;;;;5038021;28;20017;-51
2023/02/11 09:48:43;;;;;;;8.05;5.35;;;17.50;99.90;;;;;;5052387;28;20096;-52
2023/02/11 09:51:31;;;;;;;9.85;4.70;;;17.50;99.90;;;;;;5027359;28;20026;-53
2023/02/11 09:54:02;;;;;;;9.57;4.80;;;17.60;99.90;;;;;;5016747;28;20143;-54
2023/02/11 09:56:27;;;;;;;8.80;4.85;;;17.60;99.90;;;;;;5052351;28;20029;-53
2023/02/11 09:58:53;;;;;;;8.82;4.75;;;17.60;99.90;;;;;;5038335;28;20035;-54
2023/02/11 10:01:48;;;;;;;10.68;5.43;;;17.60;99.90;;;;;;5049930;28;20124;-54
2023/02/11 10:04:56;;;;;;;8.65;5.00;;;17.60;99.90;;;;;;5002362;28;20033;-54
2023/02/11 10:07:33;;;;;;;9.63;5.32;;;17.60;99.90;;;;;;4998548;28;20034;-54
2023/02/11 10:10:10;;;;;;;11.07;5.70;;;17.70;99.90;;;;;;5031169;28;20025;-52
2023/02/11 10:13:14;;;;;;;8.73;4.85;;;17.80;99.90;;;;;;5016398;28;20321;-52
2023/02/11 10:16:03;;;;;;;14.50;7.50;;;17.80;99.90;;;;;;4977715;28;20052;-54
2023/02/11 10:18:47;;;;;;;10.15;6.20;;;17.90;99.90;;;;;;5016426;28;20363;-53
2023/02/11 10:21:50;;;;;;;14.98;7.50;;;17.90;99.90;;;;;;5030840;28;20475;-52
2023/02/11 10:24:17;;;;;;;14.15;7.43;;;17.90;99.90;;;;;;5024154;28;20018;-52
2023/02/11 10:26:44;;;;;;;18.25;8.80;;;18.00;99.90;;;;;;5005845;28;20053;-54
2023/02/11 10:29:37;;;;;;;15.13;7.80;;;18.10;99.90;;;;;;4995477;28;20053;-53
2023/02/11 10:32:25;;;;;;;16.92;9.60;;;18.10;99.90;;;;;;5012328;28;20034;-53
2023/02/11 10:34:51;;;;;;;;;;;18.20;99.90;;;;;;5028986;28;20494;-54
2023/02/11 10:37:17;;;;;;;18.42;9.27;;;18.30;99.90;;;;;;5030988;28;19905;-54
2023/02/11 10:39:42;;;;;;;19.98;8.75;;;18.30;99.90;;;;;;5031916;28;20487;-58
2023/02/11 10:42:12;;;;;;;27.58;9.73;;;18.40;99.90;;;;;;5013341;28;20036;-58
2023/02/11 10:44:47;;;;;;;21.55;10.30;;;18.40;99.90;;;;;;5029447;28;20116;-58
2023/02/11 10:47:21;;;;;;;15.23;8.38;;;18.40;99.90;;;;;;5025142;28;20751;-59
2023/02/11 10:49:47;;;;;;;17.08;8.23;;;18.40;99.90;;;;;;5020758;28;20018;-58
2023/02/11 10:52:21;;;;;;;15.93;8.55;;;18.50;99.90;;;;;;5014464;28;20069;-58
2023/02/11 10:55:13;;;;;;;18.83;9.75;;;18.50;99.90;;;;;;5030332;28;20064;-59
2023/02/11 10:58:01;;;;;;;18.13;8.70;;;18.60;99.90;;;;;;5002422;28;20376;-60
2023/02/11 11:00:36;;;;;;;22.60;8.90;;;18.60;99.90;;;;;;5020492;28;20041;-59
2023/02/11 11:03:15;;;;;;;21.13;8.45;;;18.70;99.90;;;;;;5025178;28;20030;-58
2023/02/11 11:05:54;;;;;;;14.70;7.93;;;18.70;99.90;;;;;;5022123;28;20053;-60
2023/02/11 11:08:20;;;;;;;16.83;7.63;;;18.80;99.90;;;;;;5011301;28;20049;-57
2023/02/11 11:11:08;;;;;;;14.07;6.90;;;18.80;99.90;;;;;;5000108;28;20434;-60
2023/02/11 11:13:38;;;;;;;17.65;7.57;;;18.90;99.90;;;;;;5030082;28;20045;-59
2023/02/11 11:16:27;;;;;;;14.85;8.00;;;18.90;99.90;;;;;;5032347;28;20467;-60
2023/02/11 11:19:22;;;;;;;12.23;6.47;;;19.00;99.90;;;;;;5023072;28;20040;-58
2023/02/11 11:21:55;;;;;;;12.95;6.43;;;19.00;99.90;;;;;;5014753;28;20042;-59
2023/02/11 11:24:45;;;;;;;18.35;5.00;;;19.10;99.90;;;;;;5015940;28;20057;-60
2023/02/11 11:27:19;;;;;;;11.40;4.00;;;19.10;99.90;;;;;;5014732;28;20563;-50
2023/02/11 11:29:49;;;;;;;20.20;4.57;;;19.20;99.90;;;;;;5028094;28;20061;-52
2023/02/11 11:32:22;;;;;;;11.05;3.70;;;19.20;99.90;;;;;;5033230;28;20040;-56
2023/02/11 11:34:59;;;;;;;17.08;4.22;;;19.20;99.90;;;;;;5006322;28;20029;-54
2023/02/11 11:37:30;;;;;;;14.77;4.93;;;19.20;99.90;;;;;;5043631;28;20031;-50
2023/02/11 11:40:02;;;;;;;12.13;4.63;;;19.30;99.90;;;;;;5050510;28;20026;-53
2023/02/11 11:42:30;;;;;;;11.95;4.93;;;19.40;99.90;;;;;;5052137;28;20079;-55
2023/02/11 11:45:18;;;;;;;14.27;5.40;;;19.40;99.90;;;;;;5054377;28;20017;-55
2023/02/11 11:47:51;;;;;;;21.15;6.28;;;19.40;99.90;;;;;;5040983;28;20079;-55
2023/02/11 11:50:25;;;;;;;12.40;4.63;;;19.50;99.90;;;;;;5054549;28;20017;-55
2023/02/11 11:53:12;;;;;;;10.57;4.70;;;19.60;99.90;;;;;;5053727;28;20075;-55
2023/02/11 11:55:52;;;;;;;12.23;4.63;;;19.60;99.90;;;;;;5039399;28;20391;-56
2023/02/11 11:58:21;;;;;;;12.10;4.40;;;19.70;99.90;;;;;;5043246;28;20033;-56
2023/02/11 12:00:58;;;;;;;13.52;4.80;;;19.70;99.90;;;;;;5037964;28;20056;-55
2023/02/11 12:03:34;;;;;;;15.52;5.28;;;19.70;99.90;;;;;;5048968;28;20105;-56
2023/02/11 12:06:11;;;;;;;11.98;4.30;;;19.80;99.90;;;;;;5050554;28;20021;-56
2023/02/11 12:08:51;;;;;;;20.07;5.20;;;19.80;99.90;;;;;;5037674;28;20489;-57
2023/02/11 12:11:31;;;;;;;10.40;4.75;;;19.90;99.90;;;;;;5051311;28;20036;-59
2023/02/11 12:14:26;;;;;;;9.52;4.95;;;19.90;99.90;;;;;;5052785;28;20562;-56
2023/02/11 12:17:06;;;;;;;20.00;5.63;;;19.90;99.90;;;;;;4990630;28;20034;-57
2023/02/11 12:20:00;;;;;;;14.73;4.72;;;20.00;99.90;;;;;;5014592;28;20057;-58
2023/02/11 12:22:37;;;;;;;13.25;5.38;;;20.00;99.90;;;;;;5014678;28;20052;-59
2023/02/11 12:25:15;;;;;;;;;;;20.10;99.90;;;;;;5014823;28;20026;-58
2023/02/11 12:27:55;;;;;;;14.00;5.32;;;20.20;99.90;;;;;;5029201;28;19916;-58
2023/02/11 12:30:40;;;;;;;14.35;5.32;;;20.20;99.90;;;;;;5043650;28;20017;-60
2023/02/11 12:33:20;;;;;;;11.73;6.18;;;20.20;99.90;;;;;;5053551;28;20044;-61
2023/02/11 12:36:01;;;;;;;11.40;5.32;;;20.20;99.90;;;;;;5048579;28;20021;-60
2023/02/11 12:38:38;;;;;;;16.08;5.72;;;20.30;99.90;;;;;;5039819;28;20032;-60
2023/02/11 12:44:31;;;;;;;15.85;5.68;;;20.30;99.90;;;;;;5048131;28;20032;-52
2023/02/11 12:47:10;;;;;;;18.58;7.53;;;20.40;99.90;;;;;;5035772;28;20041;-57
2023/02/11 12:49:44;;;;;;;20.23;7.78;;;20.40;99.90;;;;;;5053157;28;20028;-61
2023/02/11 12:52:28;;;;;;;19.05;8.20;;;20.50;99.90;;;;;;5043509;28;20037;-59
2023/02/11 12:55:00;;;;;;;22.80;7.47;;;20.40;99.90;;;;;;5046856;28;20017;-58
2023/02/11 12:57:35;;;;;;;18.25;7.18;;;20.50;99.90;;;;;;5045983;28;20032;-59
2023/02/11 13:00:13;;;;;;;19.70;7.25;;;20.50;99.90;;;;;;5020253;28;20045;-58
2023/02/11 13:02:53;;;;;;;17.75;8.38;;;20.50;99.90;;;;;;5041452;28;20095;-62
2023/02/11 13:05:28;;;;;;;15.77;7.00;;;20.50;99.90;;;;;;5021824;28;20364;-63
2023/02/11 13:08:24;;;;;;;14.80;6.80;;;20.60;99.90;;;;;;5053042;28;20104;-59
2023/02/11 13:11:19;;;;;;;19.33;8.47;;;20.60;99.90;;;;;;5030778;28;20021;-57